Time;durP1;ratioP1;P1;durP2;ratioP2;P2;SDS_P1;SDS_P2;PMS_P1;PMS_P2;Temp;Humidity;BMP_temperature;BMP_pressure;BME280_temperature;BME280_humidity;BME280_pressure;Samples;Min_cycle;Max_cycle;Signal;HPM_P1;HPM_P2
2021/06/25 00:01:08;;;;;;;15.80;10.03;;;;;;;26.21;59.43;94526.72;834246;71;29703;-77
2021/06/25 00:16:08;;;;;;;12.60;9.90;;;;;;;26.03;59.94;94537.50;834119;71;30182;-78
2021/06/25 00:31:14;;;;;;;15.50;10.10;;;;;;;25.78;60.35;94541.70;827749;71;32743;-76
2021/06/25 00:46:12;;;;;;;12.80;10.37;;;;;;;25.69;60.66;94535.95;829193;71;32099;-77
2021/06/25 01:01:08;;;;;;;13.80;10.70;;;;;;;25.68;60.86;94524.23;828621;71;29744;-75
2021/06/25 01:16:08;;;;;;;12.13;10.93;;;;;;;25.74;61.05;94529.42;828547;71;29768;-78
2021/06/25 01:31:10;;;;;;;17.33;11.17;;;;;;;25.69;60.40;94527.10;828995;71;30257;-79
2021/06/25 01:46:15;;;;;;;15.43;11.43;;;;;;;25.54;59.71;94529.02;824691;71;32049;-78
2021/06/25 02:01:17;;;;;;;16.27;11.77;;;;;;;25.31;60.33;94520.75;828551;71;29717;-77
2021/06/25 02:16:09;;;;;;;21.30;12.50;;;;;;;25.01;61.48;94525.06;828311;71;30242;-77
2021/06/25 02:31:14;;;;;;;18.63;12.20;;;;;;;24.55;62.68;94510.89;827721;71;33265;-78
2021/06/25 02:46:13;;;;;;;22.50;12.53;;;;;;;24.45;63.36;94504.30;828255;71;32565;-77
2021/06/25 03:16:09;;;;;;;19.77;13.10;;;;;;;23.82;65.72;94534.94;828435;71;30389;-78
2021/06/25 03:31:09;;;;;;;17.40;12.13;;;;;;;23.87;66.25;94535.37;828373;71;30793;-77
2021/06/25 03:46:09;;;;;;;18.67;12.10;;;;;;;24.56;64.93;94527.96;828490;71;30215;-78
2021/06/25 04:01:09;;;;;;;20.90;14.97;;;;;;;25.55;62.62;94535.36;834168;71;29711;-76
2021/06/25 04:16:09;;;;;;;20.23;12.17;;;;;;;26.58;61.27;94541.06;828619;71;30258;-78
2021/06/25 04:31:12;;;;;;;18.50;13.57;;;;;;;27.11;59.47;87963.30;834309;71;31953;-82
2021/06/25 04:46:08;;;;;;;16.80;14.40;;;;;;;;;;828574;71;30259;-75
2021/06/25 05:01:07;;;;;;;23.00;14.17;;;;;;;;;;828488;71;29720;-77
2021/06/25 05:16:15;;;;;;;21.90;14.17;;;;;;;26.96;57.78;33248.28;827840;71;32699;-79
2021/06/25 05:31:15;;;;;;;21.07;14.90;;;;;;;26.89;58.08;94508.45;829230;71;32805;-77
2021/06/25 05:46:15;;;;;;;19.47;15.17;;;;;;;27.08;57.62;94532.78;831701;71;32766;-78
2021/06/25 06:01:13;;;;;;;19.10;15.20;;;;;;;27.99;55.27;94529.71;828327;71;33130;-78
2021/06/25 06:16:15;;;;;;;22.60;15.83;;;;;;;28.99;53.76;94526.53;827614;71;32714;-76
2021/06/25 06:31:32;;;;;;;28.23;18.40;;;;;;;29.72;51.32;94529.81;817431;71;33294;-76
2021/06/25 06:46:10;;;;;;;23.40;16.70;;;;;;;29.63;52.31;94518.73;820260;71;29779;-79
2021/06/25 07:01:20;;;;;;;25.77;15.70;;;;;;;29.70;51.91;94516.66;819780;71;32814;-80
2021/06/25 07:16:12;;;;;;;29.03;18.00;;;;;;;30.19;50.61;94527.09;788792;74;30493;-78
2021/06/25 07:31:09;;;;;;;24.87;17.77;;;;;;;30.28;50.75;94528.69;794784;74;30395;-79
2021/06/25 07:46:08;;;;;;;28.30;17.00;;;;;;;30.63;49.78;94513.57;828671;71;29705;-81
2021/06/25 08:01:14;;;;;;;50.20;35.60;;;;;;;31.06;49.10;94498.56;827746;71;32678;-78
2021/06/25 08:16:14;;;;;;;35.87;23.70;;;;;;;31.95;48.36;94503.14;827729;71;32687;-82
2021/06/25 08:31:09;;;;;;;19.27;15.90;;;;;;;33.09;45.18;94501.30;828247;71;30267;-77
2021/06/25 08:46:14;;;;;;;16.50;9.60;;;;;;;34.00;38.73;94497.34;827550;71;33284;-76
2021/06/25 09:16:23;;;;;;;14.60;8.37;;;;;;;35.83;33.70;94477.84;827620;71;33206;-77
2021/06/25 09:31:18;;;;;;;17.00;8.70;;;;;;;36.88;32.42;94474.95;819959;71;31389;-77
2021/06/25 09:46:30;;;;;;;15.23;7.40;;;;;;;37.44;30.12;94470.04;828801;71;32685;-77
2021/06/25 10:01:30;;;;;;;11.33;6.67;;;;;;;37.87;30.20;94464.49;827791;71;32819;-79
2021/06/25 10:16:16;;;;;;;16.23;6.20;;;;;;;38.24;29.36;94454.64;820711;71;32349;-77
2021/06/25 10:31:10;;;;;;;13.20;6.00;;;;;;;38.44;28.77;94443.05;828640;71;28462;-79
2021/06/25 10:46:33;;;;;;;15.40;6.13;;;;;;;38.41;27.69;94422.81;821622;71;31805;-77
2021/06/25 11:01:08;;;;;;;11.97;5.50;;;;;;;38.58;26.93;94415.52;826766;71;28789;-82
2021/06/25 11:16:23;;;;;;;18.07;6.40;;;;;;;38.23;25.78;94376.37;822665;71;31960;-85
2021/06/25 11:31:18;;;;;;;10.43;5.23;;;;;;;38.30;26.46;94398.55;834037;71;33136;-79
2021/06/25 11:46:09;;;;;;;12.03;5.17;;;;;;;38.17;25.79;94400.19;830157;71;28796;-78
2021/06/25 12:01:11;;;;;;;11.93;4.47;;;;;;;38.10;23.68;94385.47;828278;71;29261;-77
2021/06/25 12:16:11;;;;;;;14.40;5.30;;;;;;;37.98;23.05;94385.25;834321;71;29050;-78
2021/06/25 12:31:20;;;;;;;10.00;4.30;;;;;;;37.99;23.14;94368.19;827975;71;30793;-78
2021/06/25 12:46:16;;;;;;;12.93;4.43;;;;;;;37.98;23.21;94353.73;828716;71;29456;-78
2021/06/25 13:16:10;;;;;;;13.53;3.90;;;;;;;37.67;23.16;94329.48;828561;71;29727;-78
2021/06/25 13:31:19;;;;;;;12.90;4.30;;;;;;;37.26;22.98;94329.90;827594;71;33208;-79
2021/06/25 13:46:20;;;;;;;12.17;4.53;;;;;;;37.03;23.73;94315.59;829244;71;32707;-82
2021/06/25 14:01:21;;;;;;;10.70;4.13;;;;;;;36.86;23.22;94301.53;834600;71;32707;-85
2021/06/25 14:16:18;;;;;;;12.87;4.37;;;;;;;36.60;23.09;94282.02;829062;71;30270;-82
2021/06/25 14:31:11;;;;;;;36.80;24.93;;;;;;;36.38;22.94;94285.03;828087;71;31229;-77
2021/06/25 14:46:09;;;;;;;12.60;4.60;;;;;;;36.16;24.02;94285.24;800848;74;30382;-82
2021/06/25 15:16:28;;;;;;;8.97;4.87;;;;;;;35.91;27.10;94272.08;834566;71;32694;-88
2021/06/25 15:31:09;;;;;;;18.27;5.53;;;;;;;35.79;27.81;94288.78;828762;71;30778;-78
2021/06/25 15:46:09;;;;;;;11.97;5.40;;;;;;;35.58;27.80;94287.69;828539;71;30231;-77
2021/06/25 16:01:17;;;;;;;11.73;4.87;;;;;;;35.25;27.09;94287.55;820107;71;33265;-78
2021/06/25 16:16:42;;;;;;;11.70;4.90;;;;;;;34.89;28.67;94295.78;810771;72;32898;-80
2021/06/25 16:31:12;;;;;;;11.50;4.33;;;;;;;34.46;29.38;94297.44;821830;71;31350;-78
2021/06/25 16:46:14;;;;;;;15.00;5.43;;;;;;;34.04;30.37;94308.08;825457;71;29746;-79
2021/06/25 17:01:11;;;;;;;17.50;5.83;;;;;;;33.49;30.97;94307.06;820208;71;30849;-79
2021/06/25 17:16:08;;;;;;;14.23;5.53;;;;;;;32.97;32.32;94314.41;823073;71;30027;-78
2021/06/25 17:31:09;;;;;;;10.40;5.70;;;;;;;32.31;33.23;94313.48;828591;71;29727;-76
2021/06/25 17:46:15;;;;;;;14.20;5.10;;;;;;;31.76;33.57;94308.63;820930;71;32893;-81
2021/06/25 18:01:34;;;;;;;13.17;5.63;;;;;;;31.29;34.21;94301.09;810227;72;32761;-83
2021/06/25 18:16:08;;;;;;;12.70;5.20;;;;;;;30.95;34.67;94300.19;823242;71;29833;-78
2021/06/25 18:31:10;;;;;;;16.33;5.63;;;;;;;30.62;35.03;94323.75;821551;71;30792;-77
2021/06/25 18:46:09;;;;;;;14.63;6.07;;;;;;;30.28;39.94;94325.63;834620;71;29733;-77
2021/06/25 19:01:16;;;;;;;10.90;6.10;;;;;;;30.03;43.16;94344.31;822328;71;32866;-76
2021/06/25 19:16:15;;;;;;;12.93;6.57;;;;;;;29.79;43.53;94344.39;820987;71;32880;-75
2021/06/25 19:31:16;;;;;;;16.67;7.73;;;;;;;29.37;43.79;94369.64;820333;71;32934;-78
2021/06/25 19:46:11;;;;;;;14.30;7.40;;;;;;;28.91;45.03;94353.55;823156;71;31074;-84
2021/06/25 20:01:41;;;;;;;17.30;7.30;;;;;;;28.77;45.49;94358.56;819125;71;32945;-80
2021/06/25 20:16:14;;;;;;;23.20;8.03;;;;;;;28.62;47.25;94351.27;822072;71;32931;-77
2021/06/25 20:31:09;;;;;;;16.70;8.00;;;;;;;28.24;45.96;94333.80;821177;71;29871;-77
2021/06/25 20:46:10;;;;;;;20.33;8.23;;;;;;;28.01;47.38;94310.80;825512;71;30345;-76
2021/06/25 21:16:15;;;;;;;16.03;7.33;;;;;;;27.63;48.14;94310.22;822481;71;33289;-78
2021/06/25 21:31:39;;;;;;;20.33;7.63;;;;;;;27.48;48.82;94308.27;768494;75;33071;-76
2021/06/25 21:46:08;;;;;;;13.97;5.80;;;;;;;;;;834145;71;30703;-78
2021/06/25 22:01:09;;;;;;;16.43;7.20;;;;;;;27.05;50.16;123554.15;828484;71;30311;-78
2021/06/25 22:16:14;;;;;;;16.20;7.27;;;;;;;;;;827881;71;33202;-76
2021/06/25 22:31:14;;;;;;;14.67;7.33;;;;;;;;;;827312;71;33206;-76
2021/06/25 22:46:09;;;;;;;21.20;8.87;;;;;;;26.55;54.56;94353.41;828391;71;30236;-77
2021/06/25 23:01:15;;;;;;;15.20;8.60;;;;;;;26.62;55.46;94330.50;827495;71;33205;-78
2021/06/25 23:16:09;;;;;;;18.77;8.50;;;;;;;26.79;57.60;123554.15;828538;71;29734;-76
2021/06/25 23:31:09;;;;;;;14.83;7.70;;;;;;;26.82;55.00;94296.34;828465;71;29748;-77
2021/06/25 23:46:10;;;;;;;14.13;7.30;;;;;;;26.92;54.39;94302.97;828564;71;30865;-75
